Tiempo atmosférico en la estación meteorológica de Villaeles De Valdavia, Palencia (908 m.)



Fecha
DESCASC
Temp. máxima en grados centígrados (hora)
DESCASC
Temp. mínima en grados centígrados (hora)
DESCASC
Temp. media en grados centígrados
DESCASC
Racha de viento máxima en m/sg (hora)
DESCASC
Velocidad máxima media en intervalos de 10 minutos(hora)
DESCASC
Precipitaciones diarias en mm
DESCASC
Precipitaciones de 00:00 a 06:00 en mm
DESCASC
Precipitaciones de 06:00 a 12:00 en mm
DESCASC
Precipitaciones de 12:00 a 18:00 en mm
DESCASC
Precipitaciones de 18:00 a 24:00 en mm
DESCASC
05-04-2020 15.3 (14:40) 4.1 (03:00) 9.7 11.11 (17:00) 7.78 (13:30) 8 0 0 0.4 7.6
04-04-2020 18.1 (16:50) -1.9 (08:00) 8.1 8.61 (16:50) 5.56 (17:00) 0 0 0 0 0
03-04-2020 15 (18:30) -2.4 (07:50) 6.3 5.56 (16:40) 3.33 (17:30) 0 0 0 0 0
02-04-2020 11.4 (16:20) 2.5 (00:00) 6.9 11.39 (16:00) 6.94 (17:30) 4.6 4.2 0.4 0 0
01-04-2020 11.4 (18:00) 4.1 (00:00) 7.7 8.06 (20:20) 5.28 (20:30) 4.8 1.4 0 0.2 3.2
31-03-2020 5.6 (18:20) -2.5 (-00:0) 1.5 13.33 (10:20) 8.06 (14:10) 0.6 0 0 0 0.6
30-03-2020 4.4 (16:50) -1.3 (-00:0) 1.6 14.44 (01:40) 7.5 (11:10) 0 0 0 0 0
29-03-2020 13.9 (15:30) -0.7 (-00:0) 6.6 12.5 (18:40) 7.22 (21:30) 0 0 0 0 0
28-03-2020 16.5 (17:20) -2.7 (-00:0) 6.9 7.5 (15:40) 3.61 (15:40) 0 0 0 0 0
27-03-2020 12.9 (17:30) -3.1 (-00:0) 4.9 10.28 (09:40) 5.56 (09:30) 0 0 0 0 0
26-03-2020 12.9 (15:20) -4.5 (-00:0) 4.2 11.67 (23:50) 5.28 (13:20) 0 0 0 0 0
25-03-2020 16.5 (16:00) -1.4 (-00:0) 7.6 10.83 (16:50) 6.11 (16:50) 0 0 0 0 0
24-03-2020 15.7 (16:50) 3.7 (00:00) 9.7 10 (14:30) 5.28 (10:30) 0 0 0 0 0
23-03-2020 13.9 (16:30) 2.5 (00:00) 8.2 8.33 (12:10) 4.72 (10:00) 0 0 0 0 0
22-03-2020 14.8 (15:40) 1.9 (07:50) 8.4 10.83 (16:20) 6.39 (16:20) 0 0 0 0 0
21-03-2020 14.8 (17:00) 4.6 (00:00) 9.7 8.33 (13:20) 5 (13:50) 0 0 0 0 0
20-03-2020 13.7 (17:30) 2.9 (00:00) 8.3 6.39 (14:20) 3.33 (14:40) 0 0 0 0 0
19-03-2020 16.5 (15:40) 4 (00:00) 10.3 7.22 (13:40) 4.72 (13:30) 0 0 0 0 0
18-03-2020 18.3 (16:40) 2.4 (00:00) 10.3 5.83 (15:50) 3.89 (15:40) 0 0 0 0 0
17-03-2020 10.3 (18:20) 3.8 (00:00) 7.1 14.17 (04:00) 7.22 (04:00) 0 0 0 0 0
16-03-2020 8.1 (16:20) 0.8 (00:00) 4.5 17.5 (16:10) 7.22 (14:00) 4.6 4.2 0.4 0 0
15-03-2020 16.4 (15:20) -2 (-00:0) 7.2 13.61 (23:10) 7.78 (17:40) 0 0 0 0 0
14-03-2020 16.3 (17:40) -2.3 (-00:0) 7 6.11 (14:50) 3.33 (14:50) 0 0 0 0 0
13-03-2020 11 (15:20) 1.6 (23:59) 6.3 13.61 (11:40) 8.33 (06:00) 0 0 0 0 0
12-03-2020 15.6 (14:20) 4.3 (00:00) 10 12.5 (19:00) 7.5 (21:20) 0 0 0 0 0
11-03-2020 19.4 (16:40) 0.3 (00:00) 9.8 7.5 (16:50) 5.28 (16:50) 0 0 0 0 0
10-03-2020 18.1 (15:30) 0.6 (00:00) 9.4 8.06 (15:40) 5.83 (15:40) 0 0 0 0 0

Gráficas

Temp. máximas Temp. mínimas Temp. medias Precipitaciones Rachas de viento máximas Velocidades máximas media en intervalos de 10 minutos

Datos horarios

Fecha y hora oficial Temperatura (ºC) Velocidad del viento (km/h) Dirección del viento Racha (km/h) Dirección de racha Precipitación (mm) Presión (hPa) Tendencia (hPa) Humedad (%)
2020-04-08 23:00:00 8.5 0 Calma 10 Nordeste 0 -- -- 91
2020-04-08 22:00:00 9.8 2 Nordeste 5 Nordeste 0 -- -- 87
2020-04-08 21:00:00 14.1 0 Calma 14 Oeste 0 -- -- 74
2020-04-08 20:00:00 17.4 9 Oeste 16 Sudoeste 0 -- -- 62
2020-04-08 19:00:00 17.8 12 Sudoeste 19 Sudoeste 0 -- -- 62
2020-04-08 18:00:00 17.8 13 Sudoeste 19 Oeste 0 -- -- 66
2020-04-08 17:00:00 18 13 Sudoeste 21 Sudoeste 0 -- -- 69
2020-04-08 16:00:00 17.3 10 Oeste 25 Sudoeste 0 -- -- 67
2020-04-08 15:00:00 15.7 6 Sudoeste 15 Sudoeste 0 -- -- 79
2020-04-08 14:00:00 13 6 Oeste 11 Oeste 0 -- -- 88
2020-04-08 13:00:00 13.1 5 Sudoeste 9 Sudoeste 0 -- -- 90
2020-04-08 12:00:00 11.6 5 Sudoeste 9 Oeste 0 -- -- 91
2020-04-08 11:00:00 11.1 5 Este 9 Este 0 -- -- 96
2020-04-08 10:00:00 9.8 3 Nordeste 7 Este 0 -- -- 99
2020-04-08 09:00:00 9 0 Calma 11 Nordeste 0 -- -- 100
2020-04-08 08:00:00 8.6 6 Nordeste 9 Nordeste 0 -- -- 99
2020-04-08 07:00:00 8.9 4 Nordeste 7 Norte 0 -- -- 98
2020-04-08 06:00:00 9 4 Nordeste 7 Este 0 -- -- 97
2020-04-08 05:00:00 9.1 4 Este 10 Nordeste 0 -- -- 97
2020-04-08 04:00:00 8.9 3 Nordeste 11 Nordeste 0 -- -- 98
2020-04-08 03:00:00 8.8 5 Nordeste 13 Nordeste 0 -- -- 97
2020-04-08 02:00:00 9 5 Este 15 Sudeste 0 -- -- 96
2020-04-08 01:00:00 9.3 6 Sudeste 12 Sudeste 0 -- -- 95
2020-04-08 00:00:00 9.5 5 Sudeste 13 Sur 0 -- -- 93
2020-04-07 23:00:00 9.9 2 Nordeste 13 Este 0 -- -- 92
2020-04-07 22:00:00 10.7 3 Este 8 Nordeste 0 -- -- 91
2020-04-07 21:00:00 12.2 2 Norte 10 Noroeste 0 -- -- 84
2020-04-07 20:00:00 15.3 5 Noroeste 15 Oeste 0 -- -- 71
2020-04-07 19:00:00 15.2 7 Oeste 13 Oeste 0 -- -- 72
2020-04-07 18:00:00 14.7 9 Oeste 14 Sudoeste 0.2 -- -- 73
2020-04-07 17:00:00 13.6 5 Oeste 21 Oeste 0.2 -- -- 80
2020-04-07 16:00:00 14.9 15 Sudoeste 28 Sur 0 -- -- 75
2020-04-07 15:00:00 15.2 16 Sudoeste 23 Sudoeste 0 -- -- 76
2020-04-07 14:00:00 14.8 12 Sudoeste 21 Sudoeste 0 -- -- 77
2020-04-07 13:00:00 13.1 5 Oeste 15 Sudoeste 0 -- -- 77
2020-04-07 12:00:00 12.9 8 Sur 13 Sur 0 -- -- 85
2020-04-07 11:00:00 10.7 0 Calma 9 Noroeste 0 -- -- 92
2020-04-07 10:00:00 9.3 5 Nordeste 9 Nordeste 0 -- -- 98
2020-04-07 09:00:00 8.6 0 Calma 4 Este 0 -- -- 98
2020-04-07 08:00:00 8.3 0 Calma 3 Este 0.2 -- -- 98
2020-04-07 07:00:00 8.3 0 Calma 3 Este 0.2 -- -- 98
2020-04-07 06:00:00 8.4 0 Calma 6 Sur 0.4 -- -- 97
2020-04-07 05:00:00 8.6 5 Sur 8 Sudeste 0 -- -- 96
2020-04-07 04:00:00 8.7 6 Sur 9 Sur 0 -- -- 97
2020-04-07 03:00:00 8.9 4 Sudeste 6 Sudeste 0 -- -- 97
2020-04-07 02:00:00 8.7 3 Sudeste 9 Sudeste 0 -- -- 98
2020-04-07 01:00:00 8.5 4 Sudeste 9 Sudeste 0 -- -- 98
2020-04-07 00:00:00 8.4 5 Este 7 Este 0.2 -- -- 97
2020-04-06 23:00:00 8.9 3 Sur 6 Sur 0 -- -- 95
2020-04-06 22:00:00 9.5 5 Sudoeste 10 Oeste 0.2 -- -- 91
2020-04-06 21:00:00 9.7 3 Sur 18 Sudoeste 0 -- -- 91
2020-04-06 20:00:00 10.3 12 Sudoeste 29 Sudoeste 0.2 -- -- 93
2020-04-06 19:00:00 10.7 28 Sudoeste 42 Sudoeste 0.2 -- -- 89
2020-04-06 18:00:00 11.3 17 Sudoeste 35 Sudoeste 1.2 -- -- 86
2020-04-06 17:00:00 13.9 22 Sudoeste 32 Sudoeste 0 -- -- 73
2020-04-06 16:00:00 13.8 17 Sudoeste 33 Sudoeste 0 -- -- 77
2020-04-06 15:00:00 12.4 18 Sudoeste 26 Sur 0 -- -- 87
2020-04-06 14:00:00 12.2 17 Sudoeste 28 Sudoeste 0 -- -- 83
2020-04-06 13:00:00 11.4 20 Sudoeste 33 Sudoeste 0 -- -- 91
2020-04-06 12:00:00 10.9 21 Sudoeste 40 Sudoeste 0.6 -- -- 96
2020-04-06 11:00:00 11.2 17 Sudoeste 29 Sudoeste 0.2 -- -- 100
2020-04-06 10:00:00 10 4 Sur 12 Este 1.2 -- -- 100
2020-04-06 09:00:00 9.3 6 Nordeste 13 Nordeste 0.8 -- -- 99
2020-04-06 08:00:00 9 8 Nordeste 12 Este 0.8 -- -- 99
2020-04-06 07:00:00 9 7 Nordeste 10 Nordeste 2.4 -- -- 99
2020-04-06 06:00:00 8.9 5 Norte 11 Norte 2.4 -- -- 98
2020-04-06 05:00:00 9 3 Norte 6 Norte 1.8 -- -- 98
2020-04-06 04:00:00 9 5 Este 8 Este 0.2 -- -- 97
2020-04-06 03:00:00 9.1 5 Sudeste 8 Este 0.4 -- -- 97
2020-04-06 02:00:00 9.2 2 Este 13 Sur 0 -- -- 96
2020-04-06 01:00:00 9.4 11 Sur 19 Sur 0 -- -- 96
2020-04-06 00:00:00 9.5 8 Sur 9 Sur 0.2 -- -- 95
2020-04-05 23:00:00 9.7 4 Sudoeste 17 Sudoeste 2.4 -- -- 96
2020-04-05 22:00:00 9.8 8 Sudoeste 20 Oeste 2.2 -- -- 95
2020-04-05 21:00:00 10 14 Oeste 22 Sudoeste 1.6 -- -- 93
2020-04-05 20:00:00 10.5 14 Sudoeste 30 Sudoeste 1 -- -- 89
2020-04-05 19:00:00 11.7 23 Sudoeste 31 Sudoeste 0.2 -- -- 83
2020-04-05 18:00:00 13 15 Sudoeste 39 Sudoeste 0.4 -- -- 83
2020-04-05 17:00:00 13.7 27 Sudoeste 40 Sudoeste 0 -- -- 75
2020-04-05 16:00:00 13.9 25 Sudoeste 37 Sudoeste 0 -- -- 73
2020-04-05 15:00:00 14.8 22 Sudoeste 34 Sudoeste 0 -- -- 64
2020-04-05 14:00:00 14.2 27 Sudoeste 37 Sudoeste 0 -- -- 63
2020-04-05 13:00:00 13.3 19 Sudoeste 31 Sudoeste 0 -- -- 66
2020-04-05 12:00:00 12.1 20 Sudoeste 28 Sur 0 -- -- 67
2020-04-05 11:00:00 11 19 Sudoeste 33 Sudoeste 0 -- -- 73
2020-04-05 10:00:00 9.8 13 Sudoeste 23 Sudoeste 0 -- -- 79
2020-04-05 09:00:00 7.8 4 Sudeste 19 Sur 0 -- -- 85
2020-04-05 08:00:00 7.7 13 Sur 22 Sur 0 -- -- 84
2020-04-05 07:00:00 7.3 12 Sur 19 Sudoeste 0 -- -- 84
2020-04-05 06:00:00 6.3 9 Sur 14 Sur 0 -- -- 85
2020-04-05 05:00:00 5.2 4 Sudeste 6 Sudeste 0 -- -- 88
2020-04-05 04:00:00 4.8 5 Nordeste 7 Nordeste 0 -- -- 87
2020-04-05 03:00:00 4.1 3 Norte 15 Sur 0 -- -- 86
2020-04-05 02:00:00 5.1 6 Sudeste 13 Sudeste 0 -- -- 82
2020-04-05 01:00:00 6.7 3 Sudeste 15 Sudeste 0 -- -- 74
2020-04-05 00:00:00 9.1 9 Sudeste 18 Sur 0 -- -- 66
2020-04-04 23:00:00 10.3 10 Sudeste 22 Sur 0 -- -- 63
2020-04-04 22:00:00 11.1 14 Sur 21 Sur 0 -- -- 61
2020-04-04 21:00:00 12.4 15 Sudoeste 24 Sudoeste 0 -- -- 57
2020-04-04 20:00:00 14.3 7 Sur 13 Sur 0 -- -- 51
2020-04-04 19:00:00 14.8 9 Sudoeste 25 Sudoeste 0 -- -- 45
2020-04-04 18:00:00 16.9 20 Sudoeste 29 Sur 0 -- -- 40
2020-04-04 17:00:00 17.6 20 Sudoeste 31 Sur 0 -- -- 40
2020-04-04 16:00:00 17.1 18 Sur 30 Sur 0 -- -- 40
2020-04-04 15:00:00 16 14 Sudeste 27 Sur 0 -- -- 41
2020-04-04 14:00:00 14.9 10 Sur 23 Sur 0 -- -- 50
2020-04-04 13:00:00 13.4 11 Sur 20 Sur 0 -- -- 53
2020-04-04 12:00:00 11.2 11 Sur 19 Sur 0 -- -- 65
2020-04-04 11:00:00 7.6 5 Sudoeste 10 Sudoeste 0 -- -- 82
2020-04-04 10:00:00 2.9 5 Norte 12 Norte 0 -- -- 92
2020-04-04 09:00:00 -0.7 6 Norte 15 Norte 0 -- -- 95
2020-04-04 08:00:00 -1.9 2 Norte 6 Nordeste 0 -- -- 95
2020-04-04 07:00:00 -1.1 4 Norte 13 Norte 0 -- -- 94
2020-04-04 06:00:00 -1 5 Norte 10 Norte 0 -- -- 95
2020-04-04 05:00:00 -1.1 3 Norte 9 Noroeste 0 -- -- 95
2020-04-04 04:00:00 -0.4 5 Norte 11 Norte 0 -- -- 94
2020-04-04 03:00:00 0.1 5 Norte 11 Norte 0 -- -- 93
2020-04-04 02:00:00 0.4 4 Norte 12 Nordeste 0 -- -- 92
2020-04-04 01:00:00 0.9 6 Noroeste 12 Noroeste 0 -- -- 93
2020-04-04 00:00:00 1.3 4 Norte 9 Nordeste 0 -- -- 90
2020-04-03 23:00:00 3 6 Norte 10 Noroeste 0 -- -- 86
2020-04-03 22:00:00 4 0 Calma 5 Sur 0 -- -- 82
2020-04-03 21:00:00 10 4 Sur 13 Sur 0 -- -- 62
2020-04-03 20:00:00 14.1 10 Sur 18 Sur 0 -- -- 49
2020-04-03 19:00:00 14.8 8 Sur 18 Sur 0 -- -- 48
2020-04-03 18:00:00 14.7 10 Sur 20 Sur 0 -- -- 52
2020-04-03 17:00:00 13.9 9 Sur 20 Sur 0 -- -- 55
2020-04-03 16:00:00 12.1 7 Sudoeste 18 Oeste 0 -- -- 58
2020-04-03 15:00:00 9.9 9 Sudoeste 19 Sur 0 -- -- 65
2020-04-03 14:00:00 7.9 5 Noroeste 18 Oeste 0 -- -- 70
2020-04-03 13:00:00 6.3 5 Noroeste 17 Oeste 0 -- -- 77
2020-04-03 12:00:00 5 7 Norte 14 Noroeste 0 -- -- 80
2020-04-03 11:00:00 3.5 5 Oeste 10 Noroeste 0 -- -- 83
2020-04-03 10:00:00 0.4 6 Noroeste 13 Noroeste 0 -- -- 97
2020-04-03 09:00:00 -2 6 Norte 13 Norte 0 -- -- 96
2020-04-03 08:00:00 -2.4 4 Norte 11 Norte 0 -- -- 95
2020-04-03 07:00:00 -2.2 4 Norte 12 Norte 0 -- -- 95
2020-04-03 06:00:00 -1.8 6 Norte 11 Norte 0 -- -- 95
2020-04-03 05:00:00 -1.4 5 Norte 11 Noroeste 0 -- -- 94
2020-04-03 04:00:00 -1.1 5 Norte 10 Noroeste 0 -- -- 93
2020-04-03 03:00:00 0.3 4 Norte 12 Norte 0 -- -- 92
2020-04-03 02:00:00 1.3 3 Noroeste 11 Este 0 -- -- 90
2020-04-03 01:00:00 1.9 5 Nordeste 14 Este 0 -- -- 90
2020-04-03 00:00:00 2.5 0 Calma 13 Nordeste 0 -- -- 88
2020-04-02 23:00:00 3.5 2 Sudeste 13 Este 0 -- -- 86
2020-04-02 22:00:00 4.5 9 Este 25 Nordeste 0 -- -- 83
2020-04-02 21:00:00 6 9 Este 29 Este 0 -- -- 78
2020-04-02 20:00:00 8.1 21 Nordeste 37 Este 0 -- -- 69
2020-04-02 19:00:00 9.8 20 Nordeste 37 Nordeste 0 -- -- 62
2020-04-02 18:00:00 10.6 25 Nordeste 41 Nordeste 0 -- -- 54
2020-04-02 17:00:00 10.9 21 Nordeste 37 Nordeste 0 -- -- 55
2020-04-02 16:00:00 11.3 22 Nordeste 41 Nordeste 0 -- -- 63
2020-04-02 15:00:00 10.6 19 Nordeste 37 Nordeste 0 -- -- 64
2020-04-02 14:00:00 8.2 15 Nordeste 31 Este 0 -- -- 81
2020-04-02 13:00:00 8.7 10 Nordeste 31 Nordeste 0 -- -- 79
2020-04-02 12:00:00 8.9 18 Nordeste 30 Nordeste 0 -- -- 80
2020-04-02 11:00:00 6.3 9 Nordeste 31 Nordeste 0.4 -- -- 92
2020-04-02 10:00:00 7.2 9 Nordeste 22 Nordeste 0 -- -- 92
2020-04-02 09:00:00 5.9 6 Norte 13 Nordeste 0 -- -- 96
2020-04-02 08:00:00 5.6 4 Nordeste 10 Nordeste 0 -- -- 96
2020-04-02 07:00:00 5.7 8 Nordeste 13 Nordeste 0 -- -- 96
2020-04-02 06:00:00 5.9 8 Nordeste 15 Nordeste 0 -- -- 97
2020-04-02 05:00:00 5.8 6 Nordeste 12 Nordeste 0.2 -- -- 97
2020-04-02 04:00:00 5.7 0 Calma 5 Norte 0.2 -- -- 97
2020-04-02 03:00:00 5.6 2 Nordeste 6 Nordeste 1.2 -- -- 97
2020-04-02 02:00:00 5.6 3 Nordeste 8 Nordeste 2 -- -- 97
2020-04-02 01:00:00 5.6 4 Norte 9 Norte 0.6 -- -- 97
2020-04-02 00:00:00 5.5 6 Norte 10 Norte 0.6 -- -- 96
2020-04-01 23:00:00 5.7 4 Norte 9 Noroeste 1 -- -- 94
2020-04-01 22:00:00 6 3 Noroeste 15 Sudoeste 1.6 -- -- 93
2020-04-01 21:00:00 7.3 12 Sudoeste 29 Sur 0 -- -- 82
2020-04-01 20:00:00 9.7 12 Sudeste 21 Sudeste 0 -- -- 75
2020-04-01 19:00:00 10.4 9 Este 18 Este 0 -- -- 72
2020-04-01 18:00:00 11.4 8 Este 16 Nordeste 0 -- -- 69
2020-04-01 17:00:00 10.6 8 Nordeste 18 Este 0.2 -- -- 67
2020-04-01 16:00:00 10.3 5 Nordeste 17 Nordeste 0 -- -- 74
2020-04-01 15:00:00 9.3 7 Norte 18 Nordeste 0 -- -- 77
2020-04-01 14:00:00 8.6 7 Nordeste 12 Nordeste 0 -- -- 79
2020-04-01 13:00:00 6.9 6 Nordeste 12 Nordeste 0 -- -- 89
2020-04-01 12:00:00 6.8 6 Este 14 Este 0 -- -- 90
2020-04-01 11:00:00 6.5 8 Este 15 Este 0 -- -- 92
2020-04-01 10:00:00 5.5 7 Este 14 Este 0 -- -- 95
2020-04-01 09:00:00 4.8 5 Este 12 Este 0 -- -- 96
2020-04-01 08:00:00 4.5 6 Este 14 Este 0 -- -- 96
2020-04-01 07:00:00 4.5 7 Este 13 Este 0 -- -- 96
2020-04-01 06:00:00 4.5 7 Este 17 Este 0.4 -- -- 95
2020-04-01 05:00:00 4.6 10 Este 20 Este 0 -- -- 95
2020-04-01 04:00:00 4.6 10 Este 24 Nordeste 0 -- -- 95
2020-04-01 03:00:00 4.4 13 Nordeste 24 Este 1 -- -- 95
2020-04-01 02:00:00 4.5 13 Este 24 Nordeste 0 -- -- 92
2020-04-01 01:00:00 4.2 5 Nordeste 17 Nordeste 0 -- -- 92
2020-04-01 00:00:00 4.1 10 Nordeste 23 Nordeste 0 -- -- 93
2020-03-31 23:00:00 3.9 5 Nordeste 15 Nordeste 0 -- -- 93
2020-03-31 22:00:00 4 5 Nordeste 19 Nordeste 0.2 -- -- 93
2020-03-31 21:00:00 4 12 Nordeste 27 Este 0.4 -- -- 93
2020-03-31 20:00:00 4.6 14 Este 32 Este 0 -- -- 87
2020-03-31 19:00:00 4.9 18 Nordeste 33 Nordeste 0 -- -- 85
2020-03-31 18:00:00 5 16 Nordeste 32 Nordeste 0 -- -- 87
2020-03-31 17:00:00 4.6 17 Nordeste 36 Nordeste 0 -- -- 87
2020-03-31 16:00:00 3.5 20 Nordeste 43 Nordeste 0 -- -- 88
2020-03-31 15:00:00 4 27 Nordeste 45 Nordeste 0 -- -- 83
2020-03-31 14:00:00 4 25 Nordeste 44 Este 0 -- -- 80
2020-03-31 13:00:00 3.6 25 Nordeste 43 Nordeste 0 -- -- 71
2020-03-31 12:00:00 2.7 22 Nordeste 41 Nordeste 0 -- -- 73
2020-03-31 11:00:00 1.9 25 Nordeste 48 Nordeste 0 -- -- 72
2020-03-31 10:00:00 0.3 26 Nordeste 42 Nordeste 0 -- -- 74
2020-03-31 09:00:00 -1.3 22 Nordeste 42 Nordeste 0 -- -- 79
2020-03-31 08:00:00 -1.6 19 Nordeste 46 Este 0 -- -- 81
2020-03-31 07:00:00 -1.4 14 Nordeste 28 Nordeste 0 -- -- 80
2020-03-31 06:00:00 -1.7 12 Nordeste 28 Nordeste 0 -- -- 82
2020-03-31 05:00:00 -2.3 13 Nordeste 24 Este 0 -- -- 86
2020-03-31 04:00:00 -2.4 12 Este 26 Este 0 -- -- 85
2020-03-31 03:00:00 -2.1 9 Nordeste 22 Nordeste 0 -- -- 80
2020-03-31 02:00:00 -1.8 7 Nordeste 23 Este 0 -- -- 81
2020-03-31 01:00:00 -1.1 11 Nordeste 25 Este 0 -- -- 80
2020-03-31 00:00:00 -1 12 Nordeste 26 Nordeste 0 -- -- 82
2020-03-30 23:00:00 -0.9 10 Nordeste 18 Este 0 -- -- 80
2020-03-30 22:00:00 -1.2 7 Este 24 Nordeste 0 -- -- 77
2020-03-30 21:00:00 -0.7 16 Nordeste 35 Nordeste 0 -- -- 73
2020-03-30 20:00:00 1.7 22 Nordeste 36 Nordeste 0 -- -- 58
2020-03-30 19:00:00 3.5 17 Este 32 Nordeste 0 -- -- 56
2020-03-30 18:00:00 2.8 17 Nordeste 33 Norte 0 -- -- 54
2020-03-30 17:00:00 4.3 16 Norte 42 Nordeste 0 -- -- 47
2020-03-30 16:00:00 3.5 14 Nordeste 36 Nordeste 0 -- -- 52
2020-03-30 15:00:00 2.1 16 Nordeste 40 Nordeste 0 -- -- 63
2020-03-30 14:00:00 3.4 20 Nordeste 38 Nordeste 0 -- -- 60
2020-03-30 13:00:00 2 23 Nordeste 38 Nordeste 0 -- -- 63
2020-03-30 12:00:00 2.2 22 Nordeste 45 Este 0 -- -- 61
2020-03-30 11:00:00 0.3 22 Nordeste 48 Nordeste 0 -- -- 70
2020-03-30 10:00:00 -0.1 16 Nordeste 34 Nordeste 0 -- -- 77
2020-03-30 09:00:00 -0.5 12 Nordeste 28 Nordeste 0 -- -- 81
2020-03-30 08:00:00 -0.4 12 Nordeste 35 Nordeste 0 -- -- 82
2020-03-30 07:00:00 0.1 11 Nordeste 26 Este 0 -- -- 75
2020-03-30 06:00:00 0.2 13 Nordeste 46 Nordeste 0 -- -- 76
2020-03-30 05:00:00 0.6 27 Nordeste 48 Nordeste 0 -- -- 72
2020-03-30 04:00:00 1.4 22 Nordeste 46 Nordeste 0 -- -- 73
2020-03-30 03:00:00 2.1 17 Nordeste 38 Nordeste 0 -- -- 77
2020-03-30 02:00:00 2.4 22 Nordeste 52 Nordeste 0 -- -- 74
2020-03-30 01:00:00 3.1 20 Nordeste 44 Nordeste 0 -- -- 74
2020-03-30 00:00:00 3.7 24 Nordeste 40 Nordeste 0 -- -- 74
2020-03-29 23:00:00 4.2 21 Nordeste 39 Nordeste 0 -- -- 78
2020-03-29 22:00:00 4.4 22 Nordeste 41 Nordeste 0 -- -- 81
2020-03-29 21:00:00 5.8 22 Nordeste 44 Nordeste 0 -- -- 77
2020-03-29 20:00:00 7 23 Nordeste 41 Nordeste 0 -- -- 70
2020-03-29 19:00:00 8.7 24 Nordeste 45 Este 0 -- -- 62
2020-03-29 18:00:00 11.2 25 Nordeste 44 Nordeste 0 -- -- 52
2020-03-29 17:00:00 12.6 21 Este 39 Nordeste 0 -- -- 47
2020-03-29 16:00:00 13.4 19 Este 35 Este 0 -- -- 44
2020-03-29 15:00:00 13.4 15 Este 30 Nordeste 0 -- -- 49
2020-03-29 14:00:00 12.8 12 Este 24 Nordeste 0 -- -- 48
2020-03-29 13:00:00 11.3 8 Este 21 Nordeste 0 -- -- 56
2020-03-29 12:00:00 10 9 Este 18 Este 0 -- -- 53
2020-03-29 11:00:00 7.7 10 Nordeste 16 Nordeste 0 -- -- 60
2020-03-29 10:00:00 2.7 4 Noroeste 11 Noroeste 0 -- -- 87
2020-03-29 09:00:00 0.3 4 Norte 11 Noroeste 0 -- -- 88
2020-03-29 08:00:00 -0.4 6 Norte 11 Noroeste 0 -- -- 91
2020-03-29 07:00:00 -0.2 4 Norte 10 Norte 0 -- -- 92
2020-03-29 06:00:00 0.3 6 Norte 13 Noroeste 0 -- -- 92
2020-03-29 05:00:00 0.4 6 Norte 12 Norte 0 -- -- 90
2020-03-29 03:00:00 1.1 5 Norte 10 Noroeste 0 -- -- 89
2020-03-29 01:00:00 2.1 8 Norte 12 Norte 0 -- -- 86
2020-03-29 00:00:00 3.3 4 Norte 10 Norte 0 -- -- 81
2020-03-28 23:00:00 4.6 2 Norte 6 Noroeste 0 -- -- 80
2020-03-28 22:00:00 6.2 4 Norte 9 Nordeste 0 -- -- 74
2020-03-28 21:00:00 7.2 6 Nordeste 16 Este 0 -- -- 67
2020-03-28 20:00:00 8.1 10 Este 15 Este 0 -- -- 58
2020-03-28 19:00:00 15.1 9 Sur 20 Sur 0 -- -- 37
2020-03-28 18:00:00 16.4 8 Sur 19 Sur 0 -- -- 35
2020-03-28 17:00:00 16.2 12 Sur 23 Sudoeste 0 -- -- 34
2020-03-28 16:00:00 16 9 Sur 27 Sudoeste 0 -- -- 33
2020-03-28 15:00:00 15 10 Sudoeste 19 Sudoeste 0 -- -- 38
2020-03-28 14:00:00 13.6 8 Sur 17 Sur 0 -- -- 41
2020-03-28 13:00:00 12.1 7 Oeste 15 Sudoeste 0 -- -- 44
2020-03-28 12:00:00 10.2 4 Noroeste 11 Oeste 0 -- -- 44
2020-03-28 11:00:00 8.5 4 Sur 15 Sur 0 -- -- 52
2020-03-28 10:00:00 5 0 Calma 9 Noroeste 0 -- -- 73
2020-03-28 09:00:00 0.8 4 Norte 12 Norte 0 -- -- 85
2020-03-28 08:00:00 -2.5 3 Norte 11 Norte 0 -- -- 90
2020-03-28 07:00:00 -2.6 5 Norte 13 Norte 0 -- -- 88
2020-03-28 06:00:00 -2.3 6 Norte 11 Norte 0 -- -- 89
2020-03-28 05:00:00 -2.5 4 Norte 10 Norte 0 -- -- 91
2020-03-28 04:00:00 -1.5 4 Norte 12 Norte 0 -- -- 87
2020-03-28 03:00:00 -0.8 5 Norte 12 Nordeste 0 -- -- 86
2020-03-28 02:00:00 -0.1 6 Norte 14 Norte 0 -- -- 86
2020-03-28 01:00:00 0.6 6 Norte 12 Norte 0 -- -- 84
2020-03-28 00:00:00 1.5 3 Norte 10 Norte 0 -- -- 82
2020-03-27 23:00:00 2.9 6 Nordeste 15 Nordeste 0 -- -- 77
2020-03-27 22:00:00 4.5 10 Nordeste 20 Este 0 -- -- 73
2020-03-27 21:00:00 4.7 10 Nordeste 17 Este 0 -- -- 68
2020-03-27 20:00:00 5.7 6 Este 9 Sudeste 0 -- -- 51
2020-03-27 19:00:00 10.7 8 Este 18 Este 0 -- -- 37
2020-03-27 18:00:00 12.7 10 Sudeste 26 Sudeste 0 -- -- 32
2020-03-27 17:00:00 12.7 10 Sudeste 28 Este 0 -- -- 31
2020-03-27 16:00:00 11.8 14 Este 30 Nordeste 0 -- -- 31
2020-03-27 15:00:00 11.7 15 Este 33 Este 0 -- -- 36
2020-03-27 14:00:00 10.1 13 Este 30 Sudeste 0 -- -- 42
2020-03-27 13:00:00 9.3 14 Este 30 Este 0 -- -- 49
2020-03-27 12:00:00 7.2 14 Este 30 Este 0 -- -- 51
2020-03-27 11:00:00 5.4 17 Este 33 Sudeste 0 -- -- 60
2020-03-27 10:00:00 2.9 20 Este 37 Nordeste 0 -- -- 67
2020-03-27 09:00:00 0.4 11 Nordeste 20 Nordeste 0 -- -- 77
2020-03-27 08:00:00 -2.5 3 Norte 7 Nordeste 0 -- -- 90
2020-03-27 07:00:00 -2.2 3 Norte 16 Este 0 -- -- 88
2020-03-27 06:00:00 -1.5 7 Nordeste 21 Este 0 -- -- 88
2020-03-27 05:00:00 -2.6 6 Este 12 Este 0 -- -- 90
2020-03-27 04:00:00 -2.8 3 Nordeste 8 Nordeste 0 -- -- 85
2020-03-27 03:00:00 -1.8 2 Sudoeste 14 Este 0 -- -- 82
2020-03-27 02:00:00 -0.6 9 Sudeste 17 Sudeste 0 -- -- 79
2020-03-27 01:00:00 0.5 10 Nordeste 28 Nordeste 0 -- -- 74
2020-03-27 00:00:00 2.1 17 Nordeste 42 Nordeste 0 -- -- 62
2020-03-26 23:00:00 2 19 Nordeste 30 Nordeste 0 -- -- 63
2020-03-26 22:00:00 2.9 14 Nordeste 24 Nordeste 0 -- -- 71
2020-03-26 21:00:00 4.4 8 Nordeste 28 Nordeste 0 -- -- 65
2020-03-26 20:00:00 5 13 Nordeste 29 Este 0 -- -- 59
2020-03-26 19:00:00 7.3 15 Este 31 Nordeste 0 -- -- 55
2020-03-26 18:00:00 10.8 15 Sudeste 28 Este 0 -- -- 46
2020-03-26 17:00:00 12.1 13 Sudeste 34 Sudeste 0 -- -- 46
2020-03-26 16:00:00 11.7 16 Este 33 Este 0 -- -- 46
2020-03-26 15:00:00 12.5 16 Sudeste 30 Este 0 -- -- 39
2020-03-26 14:00:00 11.3 18 Este 32 Este 0 -- -- 40
2020-03-26 13:00:00 9.9 12 Nordeste 30 Nordeste 0 -- -- 45
2020-03-26 12:00:00 8.1 8 Oeste 18 Oeste 0 -- -- 45
2020-03-26 11:00:00 5.8 8 Oeste 14 Oeste 0 -- -- 45
2020-03-26 10:00:00 2.7 5 Nordeste 12 Norte 0 -- -- 75
2020-03-26 09:00:00 -1.7 10 Noroeste 14 Noroeste 0 -- -- 85
2020-03-26 08:00:00 -4.1 4 Norte 12 Norte 0 -- -- 90
2020-03-26 07:00:00 -4.5 6 Norte 11 Norte 0 -- -- 88
2020-03-26 06:00:00 -3.8 5 Norte 12 Norte 0 -- -- 86
2020-03-26 05:00:00 -3.4 4 Norte 10 Norte 0 -- -- 86
2020-03-26 04:00:00 -2.7 7 Norte 12 Norte 0 -- -- 82
2020-03-26 03:00:00 -2.1 7 Norte 11 Norte 0 -- -- 81
2020-03-26 02:00:00 -1.8 4 Norte 9 Noroeste 0 -- -- 81
2020-03-26 01:00:00 -1.9 0 Calma 8 Sudoeste 0 -- -- 73
2020-03-26 00:00:00 -1.4 5 Este 9 Nordeste 0 -- -- 70
2020-03-25 23:00:00 0.7 4 Nordeste 12 Nordeste 0 -- -- 63
2020-03-25 22:00:00 3.6 2 Sudeste 8 Nordeste 0 -- -- 54
2020-03-25 21:00:00 4.7 5 Norte 11 Este 0 -- -- 54
2020-03-25 20:00:00 9 0 Calma 12 Nordeste 0 -- -- 44
2020-03-25 19:00:00 12.6 9 Nordeste 31 Nordeste 0 -- -- 28
2020-03-25 18:00:00 14.7 15 Nordeste 37 Nordeste 0 -- -- 22
2020-03-25 17:00:00 15.6 20 Nordeste 39 Este 0 -- -- 24
2020-03-25 16:00:00 16.5 15 Este 32 Este 0 -- -- 23
2020-03-25 15:00:00 16 10 Nordeste 22 Este 0 -- -- 23
2020-03-25 14:00:00 15 9 Sudeste 21 Sudeste 0 -- -- 38
2020-03-25 13:00:00 14 12 Sudoeste 18 Sudoeste 0 -- -- 47
2020-03-25 12:00:00 12.3 9 Nordeste 16 Este 0 -- -- 54
2020-03-25 11:00:00 10.7 7 Sudeste 22 Este 0 -- -- 59
2020-03-25 10:00:00 6.9 4 Sudoeste 7 Sudoeste 0 -- -- 93
2020-03-25 09:00:00 2.6 2 Noroeste 8 Norte 0 -- -- 98
2020-03-25 08:00:00 0.5 3 Norte 9 Nordeste 0 -- -- 96
2020-03-25 07:00:00 0.7 4 Norte 10 Noroeste 0 -- -- 95
2020-03-25 06:00:00 1.7 4 Norte 11 Norte 0 -- -- 95
2020-03-25 05:00:00 2.6 6 Norte 11 Norte 0 -- -- 96
2020-03-25 04:00:00 3.6 3 Norte 10 Norte 0 -- -- 93
2020-03-25 03:00:00 4.1 4 Norte 9 Norte 0 -- -- 94
2020-03-25 02:00:00 3.8 5 Norte 9 Norte 0 -- -- 94
2020-03-25 01:00:00 4 0 Calma 6 Nordeste 0 -- -- 90
2020-03-25 00:00:00 4.2 6 Nordeste 11 Nordeste 0 -- -- 90
2020-03-24 23:00:00 4.7 2 Norte 9 Nordeste 0 -- -- 85
2020-03-24 22:00:00 5.9 5 Nordeste 13 Este 0 -- -- 82
2020-03-24 21:00:00 7.8 2 Este 10 Este 0 -- -- 73
2020-03-24 20:00:00 10.2 7 Este 18 Sudeste 0 -- -- 66
2020-03-24 19:00:00 13.7 10 Este 26 Este 0 -- -- 57
2020-03-24 18:00:00 14.6 9 Este 30 Este 0 -- -- 54
2020-03-24 17:00:00 15.7 10 Este 30 Este 0 -- -- 51
2020-03-24 16:00:00 15.5 16 Sudeste 31 Este 0 -- -- 52
2020-03-24 15:00:00 14.6 15 Sudeste 36 Este 0 -- -- 54
2020-03-24 14:00:00 14.1 16 Este 36 Sudeste 0 -- -- 58
2020-03-24 13:00:00 13.2 15 Este 26 Sudeste 0 -- -- 58
2020-03-24 12:00:00 12.2 11 Este 22 Este 0 -- -- 63
2020-03-24 11:00:00 10.9 10 Este 30 Nordeste 0 -- -- 75
2020-03-24 10:00:00 8.6 13 Este 23 Nordeste 0 -- -- 81
2020-03-24 09:00:00 6.7 13 Este 26 Nordeste 0 -- -- 91
2020-03-24 08:00:00 4.1 4 Norte 14 Nordeste 0 -- -- 96
2020-03-24 07:00:00 4 5 Nordeste 10 Este 0 -- -- 95
2020-03-24 06:00:00 4.8 8 Nordeste 13 Nordeste 0 -- -- 94
2020-03-24 05:00:00 4.8 4 Nordeste 8 Nordeste 0 -- -- 95
2020-03-24 04:00:00 4.7 4 Norte 12 Nordeste 0 -- -- 93
2020-03-24 03:00:00 5.3 10 Nordeste 18 Este 0 -- -- 92
2020-03-24 02:00:00 5.9 9 Nordeste 18 Este 0 -- -- 90
2020-03-24 01:00:00 6.4 7 Este 23 Este 0 -- -- 88
2020-03-24 00:00:00 7.4 10 Este 23 Este 0 -- -- 85
2020-03-23 23:00:00 8.4 11 Este 21 Este 0 -- -- 83
2020-03-23 22:00:00 9.1 9 Este 24 Este 0 -- -- 81
2020-03-23 21:00:00 10.2 13 Este 23 Este 0 -- -- 72
2020-03-23 20:00:00 10.4 10 Este 20 Este 0 -- -- 69
2020-03-23 19:00:00 12.1 10 Este 23 Este 0 -- -- 63
2020-03-23 18:00:00 12.6 12 Este 26 Este 0 -- -- 60
2020-03-23 17:00:00 13.5 7 Sudeste 20 Este 0 -- -- 58
2020-03-23 16:00:00 13.8 10 Este 25 Este 0 -- -- 56
2020-03-23 15:00:00 13 11 Este 25 Este 0 -- -- 58
2020-03-23 14:00:00 12.8 11 Este 26 Nordeste 0 -- -- 60
2020-03-23 13:00:00 11.9 9 Este 30 Este 0 -- -- 65
2020-03-23 12:00:00 11.5 12 Este 28 Nordeste 0 -- -- 71
2020-03-23 11:00:00 9.3 15 Este 28 Este 0 -- -- 75
2020-03-23 10:00:00 8 17 Nordeste 26 Nordeste 0 -- -- 81
2020-03-23 09:00:00 4.9 5 Norte 12 Nordeste 0 -- -- 93
2020-03-23 08:00:00 3.1 4 Nordeste 11 Norte 0 -- -- 93
2020-03-23 07:00:00 2.7 2 Oeste 8 Noroeste 0 -- -- 93
2020-03-23 06:00:00 2.6 3 Sur 14 Norte 0 -- -- 92
2020-03-23 05:00:00 4 4 Norte 19 Nordeste 0 -- -- 89
2020-03-23 04:00:00 3.8 5 Nordeste 13 Nordeste 0 -- -- 91
2020-03-23 03:00:00 4 2 Nordeste 13 Norte 0 -- -- 90
2020-03-23 02:00:00 4 3 Noroeste 12 Norte 0 -- -- 90
2020-03-23 01:00:00 4.5 5 Oeste 13 Nordeste 0 -- -- 88
2020-03-23 00:00:00 5.4 7 Nordeste 16 Nordeste 0 -- -- 86
2020-03-22 23:00:00 6.1 11 Nordeste 23 Nordeste 0 -- -- 83
2020-03-22 22:00:00 7.1 17 Nordeste 30 Este 0 -- -- 80
2020-03-22 21:00:00 8.1 16 Nordeste 28 Nordeste 0 -- -- 76
2020-03-22 20:00:00 9.1 16 Nordeste 24 Nordeste 0 -- -- 69
2020-03-22 19:00:00 11.3 15 Nordeste 32 Nordeste 0 -- -- 58
2020-03-22 18:00:00 13.3 20 Este 34 Nordeste 0 -- -- 47
2020-03-22 17:00:00 14.2 20 Nordeste 39 Nordeste 0 -- -- 47
2020-03-22 16:00:00 14.7 17 Nordeste 32 Nordeste 0 -- -- 48
2020-03-22 15:00:00 14.2 18 Nordeste 32 Nordeste 0 -- -- 50
2020-03-22 14:00:00 13.7 15 Este 33 Este 0 -- -- 56
2020-03-22 13:00:00 13.3 14 Este 34 Este 0 -- -- 62
2020-03-22 12:00:00 12.6 14 Este 26 Nordeste 0 -- -- 69
2020-03-22 11:00:00 11.2 15 Nordeste 27 Este 0 -- -- 75
2020-03-22 10:00:00 8.4 8 Este 13 Sudeste 0 -- -- 96
2020-03-22 09:00:00 3.9 5 Norte 9 Noroeste 0 -- -- 99
2020-03-22 08:00:00 1.9 0 Calma 9 Norte 0 -- -- 97
2020-03-22 07:00:00 2.4 4 Norte 9 Norte 0 -- -- 97
2020-03-22 06:00:00 2.5 0 Calma 5 Nordeste 0 -- -- 96
2020-03-22 05:00:00 3.9 4 Nordeste 6 Norte 0 -- -- 94
2020-03-22 04:00:00 5.4 0 Calma 7 Nordeste 0 -- -- 95
2020-03-22 03:00:00 5.3 3 Nordeste 5 Nordeste 0 -- -- 96
2020-03-22 02:00:00 5.4 0 Calma 8 Sudeste 0 -- -- 92
2020-03-22 01:00:00 6.4 5 Este 10 Nordeste 0 -- -- 93
2020-03-22 00:00:00 5.9 4 Nordeste 9 Sudeste 0 -- -- 91
2020-03-21 23:00:00 7.3 5 Nordeste 12 Este 0 -- -- 86
2020-03-21 22:00:00 9.3 8 Sudeste 15 Sudeste 0 -- -- 80
2020-03-21 21:00:00 9.4 6 Este 10 Este 0 -- -- 78
2020-03-21 20:00:00 9 7 Este 10 Este 0 -- -- 79
2020-03-21 19:00:00 11.9 7 Este 18 Sudeste 0 -- -- 68
2020-03-21 18:00:00 12.6 8 Este 21 Sudeste 0 -- -- 64
2020-03-21 17:00:00 14.8 8 Sudeste 16 Nordeste 0 -- -- 59
2020-03-21 16:00:00 13.1 8 Sudeste 16 Sudeste 0 -- -- 64
2020-03-21 15:00:00 13 10 Sur 21 Sudeste 0 -- -- 67
2020-03-21 14:00:00 12.7 17 Sur 30 Sur 0 -- -- 65
2020-03-21 13:00:00 13.2 14 Sudeste 26 Sudeste 0 -- -- 66
2020-03-21 12:00:00 12.3 10 Este 20 Sur 0 -- -- 69
2020-03-21 11:00:00 11.3 10 Sudeste 25 Sudeste 0 -- -- 75
2020-03-21 10:00:00 8.8 9 Este 20 Nordeste 0 -- -- 83
2020-03-21 09:00:00 6.7 5 Nordeste 10 Nordeste 0 -- -- 91
2020-03-21 08:00:00 5.1 9 Nordeste 14 Nordeste 0 -- -- 95
2020-03-21 07:00:00 4.7 7 Nordeste 13 Nordeste 0 -- -- 93
2020-03-21 06:00:00 5.7 6 Nordeste 13 Nordeste 0 -- -- 91
2020-03-21 05:00:00 6.4 7 Este 11 Este 0 -- -- 93
2020-03-21 04:00:00 4.9 3 Norte 6 Nordeste 0 -- -- 95
2020-03-21 03:00:00 5.6 6 Nordeste 14 Nordeste 0 -- -- 92
2020-03-21 02:00:00 6.3 9 Nordeste 16 Nordeste 0 -- -- 90
2020-03-21 01:00:00 7 10 Nordeste 14 Nordeste 0 -- -- 89
2020-03-21 00:00:00 8.5 7 Este 13 Sudeste 0 -- -- 83
2020-03-20 23:00:00 8.9 7 Sudeste 14 Sudeste 0 -- -- 84
2020-03-20 22:00:00 8.7 6 Este 17 Este 0 -- -- 85
2020-03-20 21:00:00 10 9 Este 19 Este 0 -- -- 80
2020-03-20 20:00:00 11.1 10 Sudeste 20 Sudeste 0 -- -- 78
2020-03-20 19:00:00 12.6 4 Este 11 Sudeste 0 -- -- 73
2020-03-20 18:00:00 13.7 6 Sur 16 Sur 0 -- -- 69
2020-03-20 17:00:00 13.2 6 Sudeste 19 Sur 0 -- -- 68
2020-03-20 16:00:00 13.5 9 Sur 17 Sur 0 -- -- 69
2020-03-20 15:00:00 13.2 8 Sur 23 Sudeste 0 -- -- 70
2020-03-20 14:00:00 12.6 8 Sudeste 15 Este 0 -- -- 71
2020-03-20 13:00:00 11.9 8 Sudeste 20 Sudeste 0 -- -- 75
2020-03-20 12:00:00 10.2 8 Sudeste 20 Este 0 -- -- 80
2020-03-20 11:00:00 8.5 8 Sudeste 16 Sudeste 0 -- -- 85
2020-03-20 10:00:00 7.3 8 Este 14 Este 0 -- -- 89
2020-03-20 09:00:00 6.1 2 Norte 5 Nordeste 0 -- -- 95
2020-03-20 08:00:00 5 0 Calma 4 Noroeste 0 -- -- 95
2020-03-20 07:00:00 4.5 0 Calma 5 Norte 0 -- -- 95
2020-03-20 06:00:00 4.6 0 Calma 4 Noroeste 0 -- -- 96
2020-03-20 05:00:00 3.5 3 Norte 5 Noroeste 0 -- -- 96
2020-03-20 04:00:00 3.6 4 Norte 8 Noroeste 0 -- -- 94
2020-03-20 03:00:00 4.1 0 Calma 9 Nordeste 0 -- -- 93
2020-03-20 02:00:00 4.7 3 Norte 9 Nordeste 0 -- -- 94
2020-03-20 01:00:00 4.2 4 Nordeste 8 Nordeste 0 -- -- 94
2020-03-20 00:00:00 5.7 4 Norte 6 Noroeste 0 -- -- 90
2020-03-19 23:00:00 7.7 5 Norte 8 Noroeste 0 -- -- 84
2020-03-19 22:00:00 8.3 2 Norte 6 Este 0 -- -- 83
2020-03-19 21:00:00 8.8 3 Sur 10 Este 0 -- -- 75
2020-03-19 20:00:00 9.5 5 Este 10 Sudeste 0 -- -- 70
2020-03-19 19:00:00 11.8 4 Este 6 Este 0 -- -- 66
2020-03-19 18:00:00 14.1 4 Este 15 Sudeste 0 -- -- 53
2020-03-19 17:00:00 15.2 8 Sudeste 21 Sur 0 -- -- 44
2020-03-19 16:00:00 16.4 14 Sur 19 Sur 0 -- -- 49
2020-03-19 15:00:00 15.8 9 Sur 20 Sur 0 -- -- 54
2020-03-19 14:00:00 15.3 11 Sur 26 Sudeste 0 -- -- 47
2020-03-19 13:00:00 15.6 14 Sur 19 Sur 0 -- -- 50
2020-03-19 12:00:00 14.1 8 Sudeste 16 Sur 0 -- -- 58
2020-03-19 11:00:00 12 5 Sudoeste 11 Este 0 -- -- 71
2020-03-19 10:00:00 9.4 4 Noroeste 8 Noroeste 0 -- -- 89
2020-03-19 09:00:00 6.3 5 Norte 9 Nordeste 0 -- -- 96
2020-03-19 08:00:00 4.4 5 Norte 10 Norte 0 -- -- 96
2020-03-19 07:00:00 4.6 5 Norte 11 Norte 0 -- -- 95
2020-03-19 06:00:00 4.8 4 Norte 10 Norte 0 -- -- 95
2020-03-19 05:00:00 4.7 5 Norte 9 Norte 0 -- -- 97
2020-03-19 04:00:00 5 2 Norte 8 Norte 0 -- -- 94
2020-03-19 03:00:00 5.9 4 Norte 8 Norte 0 -- -- 94
2020-03-19 02:00:00 6.5 4 Norte 9 Norte 0 -- -- 93
2020-03-19 01:00:00 6.2 3 Norte 9 Noroeste 0 -- -- 94
2020-03-19 00:00:00 6.5 3 Norte 5 Nordeste 0 -- -- 93
2020-03-18 23:00:00 7 3 Nordeste 6 Noroeste 0 -- -- 91
2020-03-18 22:00:00 8 2 Norte 6 Norte 0 -- -- 89
2020-03-18 21:00:00 9.2 4 Este 14 Sudeste 0 -- -- 86
2020-03-18 20:00:00 10.9 2 Nordeste 5 Nordeste 0 -- -- 83
2020-03-18 19:00:00 14.6 0 Calma 7 Sur 0 -- -- 67
2020-03-18 18:00:00 17.5 7 Sur 16 Sur 0 -- -- 62
2020-03-18 17:00:00 18.3 11 Sur 18 Sur 0 -- -- 58
2020-03-18 16:00:00 18.1 13 Sur 21 Sur 0 -- -- 57
2020-03-18 15:00:00 17.7 10 Sur 17 Sur 0 -- -- 58
2020-03-18 14:00:00 16 8 Sur 15 Sur 0 -- -- 62
2020-03-18 13:00:00 14.1 6 Sudeste 14 Sudeste 0 -- -- 68
2020-03-18 12:00:00 12.2 6 Noroeste 10 Noroeste 0 -- -- 73
2020-03-18 11:00:00 9.2 3 Noroeste 10 Noroeste 0 -- -- 92
2020-03-18 10:00:00 6.6 3 Noroeste 16 Norte 0 -- -- 96
2020-03-18 09:00:00 4.1 6 Norte 14 Norte 0 -- -- 99
2020-03-18 08:00:00 2.7 5 Norte 13 Noroeste 0 -- -- 98
2020-03-18 07:00:00 2.7 5 Norte 12 Noroeste 0 -- -- 98
2020-03-18 06:00:00 3.5 7 Nordeste 15 Norte 0 -- -- 98
2020-03-18 05:00:00 2.9 4 Nordeste 10 Norte 0 -- -- 96
2020-03-18 04:00:00 3.2 6 Nordeste 10 Norte 0 -- -- 97
2020-03-18 03:00:00 3.9 6 Norte 15 Norte 0 -- -- 97
2020-03-18 02:00:00 3.9 5 Norte 10 Norte 0 -- -- 96
2020-03-18 01:00:00 4.6 4 Norte 8 Norte 0 -- -- 96
2020-03-18 00:00:00 5.3 4 Norte 8 Norte 0 -- -- 95
2020-03-17 23:00:00 5.8 2 Norte 11 Nordeste 0 -- -- 94
2020-03-17 22:00:00 6.2 3 Norte 9 Norte 0 -- -- 93
2020-03-17 21:00:00 6.6 4 Nordeste 14 Nordeste 0 -- -- 92
2020-03-17 20:00:00 7.4 5 Noroeste 20 Nordeste 0 -- -- 90
2020-03-17 19:00:00 9 9 Nordeste 24 Nordeste 0 -- -- 84
2020-03-17 18:00:00 9.8 13 Nordeste 27 Nordeste 0 -- -- 82
2020-03-17 17:00:00 10 19 Nordeste 33 Este 0 -- -- 81
2020-03-17 16:00:00 9.4 21 Nordeste 37 Nordeste 0 -- -- 82
2020-03-17 15:00:00 9.4 17 Nordeste 32 Nordeste 0 -- -- 81
2020-03-17 14:00:00 9.3 20 Nordeste 41 Este 0 -- -- 80
2020-03-17 13:00:00 9.4 21 Nordeste 39 Este 0 -- -- 79
2020-03-17 12:00:00 9.2 21 Nordeste 39 Nordeste 0 -- -- 77
2020-03-17 11:00:00 9.2 18 Nordeste 38 Nordeste 0 -- -- 76
2020-03-17 10:00:00 7.6 23 Nordeste 46 Nordeste 0 -- -- 81
2020-03-17 09:00:00 6.2 19 Nordeste 37 Nordeste 0 -- -- 82
2020-03-17 08:00:00 4.6 20 Nordeste 37 Este 0 -- -- 87
2020-03-17 07:00:00 4.6 22 Nordeste 41 Nordeste 0 -- -- 84
2020-03-17 06:00:00 4.8 21 Nordeste 33 Nordeste 0 -- -- 81
2020-03-17 05:00:00 4.5 8 Norte 42 Nordeste 0 -- -- 81
2020-03-17 04:00:00 4.7 26 Nordeste 51 Este 0 -- -- 79
2020-03-17 03:00:00 4.6 21 Nordeste 40 Este 0 -- -- 79
2020-03-17 02:00:00 4.2 14 Nordeste 37 Nordeste 0 -- -- 78
2020-03-17 01:00:00 3.8 12 Nordeste 36 Nordeste 0 -- -- 78
2020-03-17 00:00:00 4 17 Nordeste 37 Nordeste 0 -- -- 75
2020-03-16 23:00:00 4.1 15 Nordeste 35 Nordeste 0 -- -- 74
2020-03-16 22:00:00 4.5 18 Nordeste 46 Nordeste 0 -- -- 72
2020-03-16 21:00:00 4.7 22 Nordeste 40 Nordeste 0 -- -- 70
2020-03-16 20:00:00 4.7 18 Norte 40 Norte 0 -- -- 70
2020-03-16 19:00:00 5.3 15 Norte 35 Nordeste 0 -- -- 68
2020-03-16 18:00:00 6.1 15 Nordeste 35 Norte 0 -- -- 66
2020-03-16 17:00:00 6.6 19 Norte 63 Norte 0 -- -- 64
2020-03-16 16:00:00 7.9 23 Nordeste 49 Nordeste 0 -- -- 59
2020-03-16 15:00:00 7.1 23 Nordeste 49 Norte 0 -- -- 60
2020-03-16 14:00:00 6.5 26 Nordeste 53 Norte 0 -- -- 64
2020-03-16 13:00:00 4.8 24 Nordeste 50 Norte 0 -- -- 70
2020-03-16 12:00:00 4.8 23 Nordeste 54 Nordeste 0 -- -- 63
2020-03-16 11:00:00 4.3 16 Nordeste 44 Nordeste 0 -- -- 70
2020-03-16 10:00:00 3.3 19 Nordeste 41 Nordeste 0 -- -- 76
2020-03-16 09:00:00 2.6 17 Nordeste 44 Nordeste 0 -- -- 81
2020-03-16 08:00:00 2.1 18 Nordeste 35 Nordeste 0.2 -- -- 83
2020-03-16 07:00:00 1.3 12 Nordeste 36 Nordeste 0.2 -- -- 89
2020-03-16 06:00:00 0.8 19 Norte 45 Nordeste 1 -- -- 92
2020-03-16 05:00:00 1.8 13 Nordeste 30 Nordeste 0 -- -- 86
2020-03-16 04:00:00 1.4 9 Nordeste 30 Norte 0.6 -- -- 91
2020-03-16 03:00:00 1.6 12 Norte 26 Nordeste 0 -- -- 88
2020-03-16 02:00:00 1.2 6 Norte 17 Norte 1 -- -- 93
2020-03-16 01:00:00 2.3 5 Norte 39 Nordeste 1.6 -- -- 84
2020-03-16 00:00:00 3.9 25 Nordeste 49 Nordeste 0 -- -- 73
2020-03-15 23:00:00 4.4 27 Nordeste 46 Nordeste 0 -- -- 70
2020-03-15 22:00:00 4.9 26 Nordeste 39 Nordeste 0 -- -- 75
2020-03-15 21:00:00 5.5 19 Este 42 Este 0 -- -- 77
2020-03-15 20:00:00 7.9 19 Este 42 Nordeste 0 -- -- 76
2020-03-15 19:00:00 13.4 9 Sudoeste 33 Oeste 0 -- -- 52
2020-03-15 18:00:00 13.4 28 Oeste 47 Sudoeste 0 -- -- 51
2020-03-15 17:00:00 14.7 23 Sudoeste 46 Oeste 0 -- -- 49
2020-03-15 16:00:00 15.3 26 Sudoeste 44 Sudoeste 0 -- -- 47
2020-03-15 15:00:00 16.1 20 Sudoeste 35 Sudoeste 0 -- -- 41
2020-03-15 14:00:00 15.7 19 Sudoeste 32 Sur 0 -- -- 43
2020-03-15 13:00:00 14.4 15 Sudoeste 28 Sudoeste 0 -- -- 51
2020-03-15 12:00:00 12.4 15 Sudoeste 26 Sudoeste 0 -- -- 52
2020-03-15 11:00:00 8.7 7 Sudoeste 12 Sur 0 -- -- 73
2020-03-15 10:00:00 4.4 2 Sudoeste 7 Noroeste 0 -- -- 89
2020-03-15 09:00:00 0.5 4 Noroeste 13 Norte 0 -- -- 94
2020-03-15 08:00:00 -1.3 6 Norte 11 Norte 0 -- -- 96
2020-03-15 07:00:00 -2 2 Norte 6 Norte 0 -- -- 94
2020-03-15 06:00:00 -0.9 4 Norte 10 Nordeste 0 -- -- 93
2020-03-15 05:00:00 -1.2 4 Norte 9 Norte 0 -- -- 94
2020-03-15 04:00:00 0.1 4 Norte 14 Noroeste 0 -- -- 90
2020-03-15 03:00:00 -0.4 0 Calma 13 Norte 0 -- -- 89
2020-03-15 02:00:00 -0.1 3 Norte 12 Nordeste 0 -- -- 90
2020-03-15 01:00:00 0.3 0 Calma 7 Nordeste 0 -- -- 87
2020-03-15 00:00:00 1.5 5 Norte 9 Norte 0 -- -- 86
2020-03-14 23:00:00 1.9 2 Nordeste 10 Norte 0 -- -- 81
2020-03-14 22:00:00 3 3 Norte 12 Nordeste 0 -- -- 77
2020-03-14 21:00:00 4.3 5 Norte 9 Norte 0 -- -- 75
2020-03-14 20:00:00 6.8 0 Calma 6 Sudeste 0 -- -- 68
2020-03-14 19:00:00 13.8 3 Sur 8 Sur 0 -- -- 49
2020-03-14 18:00:00 16.2 5 Sur 15 Sur 0 -- -- 43
2020-03-14 17:00:00 16.2 10 Sur 15 Sur 0 -- -- 40
2020-03-14 16:00:00 15.7 9 Sur 21 Sur 0 -- -- 42
2020-03-14 15:00:00 14.7 8 Sur 22 Sur 0 -- -- 44
2020-03-14 14:00:00 13.4 8 Sur 17 Sur 0 -- -- 45
2020-03-14 13:00:00 11.6 9 Sudoeste 17 Sudoeste 0 -- -- 54
2020-03-14 12:00:00 9.2 3 Sudoeste 9 Sur 0 -- -- 80
2020-03-14 11:00:00 6.4 3 Norte 10 Norte 0 -- -- 90
2020-03-14 10:00:00 4 6 Norte 10 Noroeste 0 -- -- 96
2020-03-14 09:00:00 -0.3 6 Norte 12 Norte 0 -- -- 96
2020-03-14 08:00:00 -2.3 5 Norte 13 Noroeste 0 -- -- 95
2020-03-14 07:00:00 -2.2 5 Norte 12 Norte 0 -- -- 95
2020-03-14 06:00:00 -1.9 6 Norte 9 Norte 0 -- -- 96
2020-03-14 05:00:00 -1.6 6 Norte 9 Norte 0 -- -- 95
2020-03-14 04:00:00 -1.3 4 Norte 14 Norte 0 -- -- 95
2020-03-14 03:00:00 -0.6 8 Norte 14 Noroeste 0 -- -- 95
2020-03-14 02:00:00 -0.4 5 Norte 12 Norte 0 -- -- 94
2020-03-14 01:00:00 0.6 6 Norte 12 Noroeste 0 -- -- 93
2020-03-14 00:00:00 1.6 4 Norte 9 Noroeste 0 -- -- 88
2020-03-13 23:00:00 2.8 4 Norte 11 Noroeste 0 -- -- 87
2020-03-13 22:00:00 2.9 0 Calma 10 Nordeste 0 -- -- 86
2020-03-13 21:00:00 4 3 Nordeste 13 Nordeste 0 -- -- 84
2020-03-13 20:00:00 5.5 2 Nordeste 21 Este 0 -- -- 79
2020-03-13 19:00:00 7.4 10 Nordeste 28 Este 0 -- -- 73
2020-03-13 18:00:00 9.2 17 Este 33 Este 0 -- -- 70
2020-03-13 17:00:00 9.5 18 Este 33 Nordeste 0 -- -- 72
2020-03-13 16:00:00 10.5 20 Nordeste 35 Nordeste 0 -- -- 67
2020-03-13 15:00:00 10.4 21 Este 36 Nordeste 0 -- -- 69
2020-03-13 14:00:00 10 19 Este 36 Este 0 -- -- 73
2020-03-13 13:00:00 9.5 18 Este 37 Nordeste 0 -- -- 74
2020-03-13 12:00:00 9.1 20 Este 49 Este 0 -- -- 73
2020-03-13 11:00:00 7.3 26 Nordeste 41 Nordeste 0 -- -- 79
2020-03-13 10:00:00 6.2 22 Este 42 Nordeste 0 -- -- 84
2020-03-13 09:00:00 5.1 25 Nordeste 41 Nordeste 0 -- -- 88
2020-03-13 08:00:00 5.2 17 Nordeste 36 Este 0 -- -- 87
2020-03-13 07:00:00 5.3 23 Este 42 Este 0 -- -- 87
2020-03-13 06:00:00 5.6 30 Nordeste 46 Nordeste 0 -- -- 86
2020-03-13 05:00:00 5.7 27 Nordeste 43 Nordeste 0 -- -- 86
2020-03-13 04:00:00 5.4 22 Nordeste 40 Este 0 -- -- 88
2020-03-13 03:00:00 5.5 23 Nordeste 41 Este 0 -- -- 89
2020-03-13 02:00:00 5.9 25 Nordeste 44 Este 0 -- -- 88
2020-03-13 01:00:00 6 23 Nordeste 44 Nordeste 0 -- -- 88
2020-03-13 00:00:00 6.2 21 Nordeste 37 Nordeste 0 -- -- 88
2020-03-12 23:00:00 6.5 18 Nordeste 37 Nordeste 0 -- -- 86
2020-03-12 22:00:00 6.6 23 Nordeste 43 Nordeste 0 -- -- 86
2020-03-12 21:00:00 7 24 Nordeste 41 Este 0 -- -- 85
2020-03-12 20:00:00 7.9 24 Nordeste 41 Nordeste 0 -- -- 83
2020-03-12 19:00:00 8.9 23 Nordeste 45 Este 0 -- -- 84
2020-03-12 18:00:00 10.6 26 Nordeste 42 Nordeste 0 -- -- 79
2020-03-12 17:00:00 12.3 18 Nordeste 32 Este 0 -- -- 76
2020-03-12 16:00:00 14.3 17 Este 27 Este 0 -- -- 69
2020-03-12 15:00:00 15 14 Este 22 Este 0 -- -- 68
2020-03-12 14:00:00 15.2 11 Este 23 Este 0 -- -- 67
2020-03-12 13:00:00 13.8 12 Nordeste 23 Nordeste 0 -- -- 70
2020-03-12 12:00:00 13.3 10 Este 18 Nordeste 0 -- -- 73
2020-03-12 11:00:00 10.7 9 Nordeste 17 Este 0 -- -- 83
2020-03-12 10:00:00 9.7 4 Nordeste 8 Nordeste 0 -- -- 86
2020-03-12 09:00:00 6.3 6 Norte 9 Noroeste 0 -- -- 93
2020-03-12 08:00:00 5 3 Norte 10 Norte 0 -- -- 93
2020-03-12 07:00:00 4.9 6 Norte 12 Norte 0 -- -- 94
2020-03-12 06:00:00 4.3 3 Norte 7 Norte 0 -- -- 94
2020-03-12 05:00:00 4.7 4 Norte 9 Norte 0 -- -- 92
2020-03-12 04:00:00 5 4 Norte 10 Norte 0 -- -- 91
2020-03-12 03:00:00 5.5 6 Norte 12 Noroeste 0 -- -- 90
2020-03-12 02:00:00 5.6 5 Norte 10 Nordeste 0 -- -- 91
2020-03-12 01:00:00 5.5 2 Nordeste 9 Norte 0 -- -- 89
2020-03-12 00:00:00 6.3 4 Norte 9 Nordeste 0 -- -- 86
2020-03-11 23:00:00 7.4 3 Norte 8 Nordeste 0 -- -- 83
2020-03-11 22:00:00 9 4 Norte 8 Noroeste 0 -- -- 79
2020-03-11 21:00:00 9.6 4 Norte 5 Nordeste 0 -- -- 76
2020-03-11 20:00:00 12.1 0 Calma 9 Sudoeste 0 -- -- 69
2020-03-11 19:00:00 17.1 8 Sudoeste 21 Oeste 0 -- -- 57
2020-03-11 18:00:00 19 14 Sudoeste 24 Sudoeste 0 -- -- 49
2020-03-11 17:00:00 19.3 16 Sudoeste 27 Sudoeste 0 -- -- 47
2020-03-11 16:00:00 19.2 15 Sudoeste 26 Sudoeste 0 -- -- 48
2020-03-11 15:00:00 18.9 13 Sudoeste 25 Sur 0 -- -- 48
2020-03-11 14:00:00 17.8 16 Sudoeste 25 Sudoeste 0 -- -- 53
2020-03-11 13:00:00 16.1 15 Sudoeste 22 Sudoeste 0 -- -- 59
2020-03-11 12:00:00 13.5 7 Sur 12 Sudoeste 0 -- -- 69
2020-03-11 11:00:00 10.1 9 Sur 12 Sur 0 -- -- 81
2020-03-11 10:00:00 6.1 4 Noroeste 9 Norte 0 -- -- 89
2020-03-11 09:00:00 2.4 3 Norte 10 Norte 0 -- -- 94
2020-03-11 08:00:00 0.5 4 Norte 10 Norte 0 -- -- 94
2020-03-11 07:00:00 1.1 5 Norte 10 Norte 0 -- -- 92
2020-03-11 06:00:00 1.1 4 Norte 13 Norte 0 -- -- 91
2020-03-11 05:00:00 1.7 6 Norte 13 Nordeste 0 -- -- 92
2020-03-11 04:00:00 2.2 5 Norte 12 Norte 0 -- -- 92
2020-03-11 03:00:00 2.8 3 Norte 10 Norte 0 -- -- 89
2020-03-11 02:00:00 3.3 5 Norte 13 Norte 0 -- -- 88
2020-03-11 01:00:00 4.8 9 Norte 16 Nordeste 0 -- -- 87
2020-03-11 00:00:00 5.7 4 Norte 13 Norte 0 -- -- 86
2020-03-10 23:00:00 6.9 6 Norte 14 Norte 0 -- -- 84
2020-03-10 22:00:00 8.1 5 Norte 10 Norte 0 -- -- 82
2020-03-10 21:00:00 9.7 0 Calma 12 Sudoeste 0 -- -- 76
2020-03-10 20:00:00 11 6 Sudeste 17 Sudoeste 0 -- -- 73
2020-03-10 19:00:00 15.9 14 Sudoeste 21 Oeste 0 -- -- 60
2020-03-10 18:00:00 17.5 14 Sudoeste 22 Sudoeste 0 -- -- 49
2020-03-10 17:00:00 17.7 14 Sudoeste 26 Sudoeste 0 -- -- 57
2020-03-10 16:00:00 17.6 19 Sudoeste 29 Sudoeste 0 -- -- 58
2020-03-10 15:00:00 17.1 12 Sudoeste 23 Sudoeste 0 -- -- 59
2020-03-10 14:00:00 15.4 14 Sudoeste 20 Sudoeste 0 -- -- 58
2020-03-10 13:00:00 13.4 14 Sudoeste 20 Sudoeste 0 -- -- 66
2020-03-10 12:00:00 11.5 11 Sudoeste 24 Sudoeste 0 -- -- 69
2020-03-10 11:00:00 9 11 Sur 14 Sur 0 -- -- 80
2020-03-10 10:00:00 4.7 3 Sudoeste 6 Sudoeste 0 -- -- 94
2020-03-10 09:00:00 2.1 0 Calma 8 Nordeste 0 -- -- 95
2020-03-10 08:00:00 1.3 6 Norte 12 Norte 0 -- -- 95
2020-03-10 07:00:00 1.3 3 Norte 10 Norte 0 -- -- 94
2020-03-10 06:00:00 0.8 2 Norte 8 Nordeste 0 -- -- 95
2020-03-10 05:00:00 1.1 4 Nordeste 8 Nordeste 0 -- -- 93
2020-03-10 04:00:00 1.3 3 Norte 5 Nordeste 0 -- -- 93
2020-03-10 03:00:00 1.6 0 Calma 4 Nordeste 0 -- -- 92
2020-03-10 02:00:00 2.9 0 Calma 10 Norte 0 -- -- 89
2020-03-10 01:00:00 3.3 4 Norte 10 Norte 0 -- -- 89
2020-03-10 00:00:00 3.2 2 Noroeste 8 Nordeste 0 -- -- 89